LIRP/PSA METAR and TAF weather

Enter ICAO airport designator
Station Type Date Time Source
LIRP METAR 2020/07/08 22:15 UTC NOAA

LIRP 082215Z 23002KT CAVOK 19/18 Q1015 NOSIG


Station Type Date Time Source
LIRP Decoded METAR 2020/07/08 22:15 UTC NOAA

Pisa / S. Giusto, Italy (LIRP) 43-41N 010-23E 6M
Jul 08, 2020 - 06:15 PM EDT / 2020.07.08 2215 UTC
Wind: from the SW (230 degrees) at 2 MPH (2 KT):0
Visibility: greater than 7 mile(s):0
Temperature: 66 F (19 C)
Dew Point: 64 F (18 C)
Relative Humidity: 93%
Pressure (altimeter): 29.97 in. Hg (1015 hPa)
ob: LIRP 082215Z 23002KT CAVOK 19/18 Q1015 NOSIG
cycle: 22

Station Type Date Time Source
LIRP TAF 2020/07/08 18:21 UTC NOAA

TAF LIRP 081700Z 0818/0918 29010KT CAVOK
BECMG 0820/0822 12005KT
BECMG 0910/0912 29008KT

Example: see airport list